Time;durP1;ratioP1;P1;durP2;ratioP2;P2;SDS_P1;SDS_P2;PMS_P1;PMS_P2;Temp;Humidity;BMP_temperature;BMP_pressure;BME280_temperature;BME280_humidity;BME280_pressure;Samples;Min_cycle;Max_cycle;Signal;HPM_P1;HPM_P2
2022/03/15 00:00:23;;;;;;;11.97;10.77;;;8.10;86.80;;;;;;5051115;28;20636;-50
2022/03/15 00:02:49;;;;;;;10.90;9.80;;;8.10;87.20;;;;;;5051064;28;20288;-56
2022/03/15 00:05:16;;;;;;;10.73;9.63;;;8.00;87.50;;;;;;5051293;28;20199;-56
2022/03/15 00:07:42;;;;;;;11.07;9.93;;;8.00;88.10;;;;;;5050694;28;20186;-56
2022/03/15 00:10:08;;;;;;;11.63;9.13;;;7.90;88.70;;;;;;5051772;28;20265;-56
2022/03/15 00:12:34;;;;;;;11.27;10.10;;;7.90;88.80;;;;;;5046655;28;20632;-54
2022/03/15 00:14:59;;;;;;;10.73;9.33;;;7.20;87.90;;;;;;5043636;28;20182;-55
2022/03/15 00:17:26;;;;;;;10.20;9.13;;;7.70;94.40;;;;;;5047814;28;20185;-56
2022/03/15 00:19:52;;;;;;;12.37;9.63;;;7.90;96.80;;;;;;5051047;28;20175;-54
2022/03/15 00:22:17;;;;;;;11.30;9.23;;;7.90;94.50;;;;;;5043169;28;20178;-56
2022/03/15 00:24:43;;;;;;;10.07;9.07;;;8.00;94.70;;;;;;5050542;28;20203;-56
2022/03/15 00:27:10;;;;;;;10.60;9.37;;;7.80;89.00;;;;;;5051183;28;20254;-57
2022/03/15 00:29:37;;;;;;;10.10;9.10;;;8.00;97.10;;;;;;5046763;28;20593;-55
2022/03/15 00:32:03;;;;;;;9.87;8.93;;;7.60;97.10;;;;;;5051370;28;20551;-56
2022/03/15 00:34:29;;;;;;;11.27;9.00;;;7.90;95.30;;;;;;5050971;28;20321;-56
2022/03/15 00:36:54;;;;;;;9.97;8.97;;;7.40;97.80;;;;;;5051202;28;20226;-54
2022/03/15 00:39:20;;;;;;;10.87;9.43;;;7.60;94.60;;;;;;5051096;28;20210;-56
2022/03/15 00:41:46;;;;;;;10.80;9.70;;;;;;;;;;5050954;28;20193;-56
2022/03/15 00:44:11;;;;;;;10.63;9.53;;;7.70;97.10;;;;;;5050957;28;20195;-56
2022/03/15 00:46:38;;;;;;;10.30;9.00;;;7.70;90.70;;;;;;5047660;28;20209;-57
2022/03/15 00:49:03;;;;;;;11.27;9.70;;;7.60;90.70;;;;;;5050792;28;20691;-52
2022/03/15 00:51:29;;;;;;;10.90;9.73;;;7.60;90.90;;;;;;5054441;28;20159;-56
2022/03/15 00:53:55;;;;;;;11.30;10.10;;;7.70;91.40;;;;;;5054970;28;20175;-57
2022/03/15 00:56:21;;;;;;;10.50;9.40;;;7.60;91.30;;;;;;5054641;28;20567;-56
2022/03/15 00:58:46;;;;;;;10.23;8.97;;;7.00;95.80;;;;;;5054318;28;20195;-50
2022/03/15 01:01:12;;;;;;;10.57;9.37;;;7.60;90.90;;;;;;5055025;28;20171;-50
2022/03/15 01:03:37;;;;;;;9.97;8.97;;;7.70;90.80;;;;;;5054237;28;20174;-52
2022/03/15 01:06:03;;;;;;;12.03;9.23;;;7.70;90.70;;;;;;5054625;28;20203;-51
2022/03/15 01:08:28;;;;;;;9.93;8.90;;;7.70;90.70;;;;;;5054388;28;20245;-52
2022/03/15 01:10:54;;;;;;;9.83;8.83;;;7.70;90.70;;;;;;5054629;28;20167;-51
2022/03/15 01:13:19;;;;;;;9.50;8.60;;;7.70;90.80;;;;;;5054595;28;20171;-52
2022/03/15 01:15:45;;;;;;;10.37;9.20;;;7.70;90.80;;;;;;5054085;28;20171;-48
2022/03/15 01:18:12;;;;;;;9.63;8.63;;;7.60;90.80;;;;;;5054514;28;20547;-49
2022/03/15 01:20:43;;;;;;;10.77;9.23;;;7.60;91.00;;;;;;5038756;28;20739;-48
2022/03/15 01:23:08;;;;;;;10.37;9.13;;;7.60;91.00;;;;;;5054535;28;20167;-49
2022/03/15 01:25:34;;;;;;;10.13;8.50;;;7.60;91.40;;;;;;5053784;28;20195;-51
2022/03/15 01:28:00;;;;;;;10.10;9.03;;;7.60;91.30;;;;;;5054126;28;20548;-52
2022/03/15 01:30:25;;;;;;;9.93;8.93;;;7.50;91.30;;;;;;5054207;28;20224;-51
2022/03/15 01:32:51;;;;;;;10.10;9.00;;;7.50;91.40;;;;;;5054216;28;20678;-54
2022/03/15 01:35:16;;;;;;;10.53;9.03;;;7.40;91.50;;;;;;5052745;28;20190;-53
2022/03/15 01:37:42;;;;;;;11.37;9.30;;;7.50;91.40;;;;;;5037106;28;20250;-48
2022/03/15 01:40:08;;;;;;;9.77;8.77;;;7.50;91.40;;;;;;5045320;28;20180;-51
2022/03/15 01:42:35;;;;;;;10.13;9.03;;;7.40;91.30;;;;;;5045620;28;20167;-52
2022/03/15 01:45:04;;;;;;;9.67;8.30;;;7.50;91.30;;;;;;5050098;28;20264;-50
2022/03/15 01:47:30;;;;;;;9.50;8.50;;;7.30;94.10;;;;;;5053610;28;20241;-56
2022/03/15 01:49:55;;;;;;;10.17;8.97;;;7.50;91.40;;;;;;5053455;28;20171;-54
2022/03/15 01:52:21;;;;;;;10.60;9.57;;;7.50;91.40;;;;;;5053990;28;20620;-50
2022/03/15 01:54:47;;;;;;;10.57;9.13;;;7.50;91.40;;;;;;5046870;28;20179;-52
2022/03/15 01:57:13;;;;;;;12.07;9.37;;;7.40;91.50;;;;;;5053294;28;20183;-51
2022/03/15 01:59:39;;;;;;;9.70;8.63;;;7.50;91.60;;;;;;5053048;28;20195;-53
2022/03/15 02:02:06;;;;;;;9.40;8.40;;;7.40;91.70;;;;;;5052685;28;20544;-51
2022/03/15 02:04:32;;;;;;;10.23;9.10;;;7.40;91.90;;;;;;5053567;28;20590;-54
2022/03/15 02:07:08;;;;;;;10.50;9.37;;;7.40;91.90;;;;;;5053146;28;20703;-53
2022/03/15 02:09:34;;;;;;;10.97;9.10;;;7.40;92.00;;;;;;5052119;28;20233;-51
2022/03/15 02:12:00;;;;;;;10.73;9.13;;;7.40;92.00;;;;;;5048274;28;20181;-52
2022/03/15 02:14:26;;;;;;;10.07;8.97;;;7.40;92.00;;;;;;5053131;28;20266;-54
2022/03/15 02:16:52;;;;;;;12.37;9.13;;;;;;;;;;5053387;28;20185;-55
2022/03/15 02:19:18;;;;;;;10.27;8.87;;;7.40;91.70;;;;;;5052885;28;20195;-51
2022/03/15 02:21:43;;;;;;;9.83;8.83;;;7.30;92.00;;;;;;5053692;28;20536;-48
2022/03/15 02:24:09;;;;;;;10.07;9.00;;;7.30;91.90;;;;;;5052637;28;20539;-53
2022/03/15 02:26:34;;;;;;;10.67;9.57;;;7.30;92.20;;;;;;5053093;28;20571;-49
2022/03/15 02:29:00;;;;;;;9.70;8.77;;;7.30;92.10;;;;;;5052777;28;20191;-52
2022/03/15 02:31:26;;;;;;;10.23;9.13;;;7.30;92.00;;;;;;5053204;28;20257;-54
2022/03/15 02:33:51;;;;;;;10.87;9.00;;;7.30;91.90;;;;;;5053242;28;20520;-52
2022/03/15 02:36:17;;;;;;;10.17;9.07;;;7.30;92.00;;;;;;5052569;28;20179;-50
2022/03/15 02:38:44;;;;;;;10.77;9.23;;;7.40;92.00;;;;;;5035052;28;20285;-52
2022/03/15 02:41:10;;;;;;;9.60;8.50;;;7.30;92.10;;;;;;5052877;28;20639;-50
2022/03/15 02:43:36;;;;;;;9.73;8.73;;;7.30;92.30;;;;;;5052615;28;20175;-53
2022/03/15 02:46:02;;;;;;;10.13;9.07;;;7.20;92.30;;;;;;5048019;28;20587;-53
2022/03/15 02:48:27;;;;;;;9.93;8.93;;;7.20;92.60;;;;;;5052117;28;20239;-53
2022/03/15 02:50:55;;;;;;;10.33;9.23;;;7.20;92.70;;;;;;5053041;28;20210;-52
2022/03/15 02:53:20;;;;;;;10.60;9.20;;;7.20;92.90;;;;;;5051982;28;20175;-56
2022/03/15 02:55:46;;;;;;;10.33;9.23;;;7.10;92.90;;;;;;5052254;28;20274;-52
2022/03/15 02:58:12;;;;;;;10.03;8.40;;;7.20;93.20;;;;;;5051979;28;20187;-56
2022/03/15 03:00:38;;;;;;;10.57;9.27;;;7.10;93.40;;;;;;5052521;28;20233;-51
2022/03/15 03:03:04;;;;;;;9.73;8.70;;;7.00;93.50;;;;;;5052419;28;20171;-56
2022/03/15 03:05:30;;;;;;;10.97;8.83;;;7.10;93.50;;;;;;5051856;28;20210;-57
2022/03/15 03:07:55;;;;;;;11.17;9.47;;;7.10;93.80;;;;;;5052286;28;20195;-55
2022/03/15 03:10:21;;;;;;;10.50;9.40;;;7.00;93.90;;;;;;5052025;28;20636;-53
2022/03/15 03:12:49;;;;;;;10.13;9.07;;;7.00;94.00;;;;;;5051962;28;20218;-49
2022/03/15 03:15:17;;;;;;;10.17;9.07;;;7.00;94.30;;;;;;5051477;28;20544;-56
2022/03/15 03:17:45;;;;;;;9.60;8.60;;;7.00;94.20;;;;;;5051883;28;20580;-55
2022/03/15 03:20:12;;;;;;;9.57;8.57;;;7.00;94.30;;;;;;5052246;28;20179;-52
2022/03/15 03:22:38;;;;;;;9.97;8.90;;;7.00;94.20;;;;;;5051762;28;20183;-50
2022/03/15 03:25:05;;;;;;;10.13;9.13;;;7.10;94.30;;;;;;5052137;28;20565;-49
2022/03/15 03:27:31;;;;;;;9.60;8.67;;;7.60;96.80;;;;;;5051241;28;20187;-54
2022/03/15 03:29:58;;;;;;;9.80;8.80;;;7.00;94.60;;;;;;5052300;28;20665;-48
2022/03/15 03:32:27;;;;;;;10.73;9.63;;;7.00;94.60;;;;;;5051525;28;20202;-55
2022/03/15 03:34:54;;;;;;;11.43;9.57;;;7.00;94.60;;;;;;5052060;28;20175;-56
2022/03/15 03:37:20;;;;;;;10.73;9.20;;;7.00;94.80;;;;;;5050951;28;20241;-53
2022/03/15 03:39:46;;;;;;;10.03;8.63;;;7.00;94.80;;;;;;5051798;28;20266;-55
2022/03/15 03:42:12;;;;;;;9.60;8.60;;;7.10;94.70;;;;;;5051824;28;20273;-56
2022/03/15 03:44:42;;;;;;;9.67;8.67;;;7.00;95.00;;;;;;5051278;28;20260;-52
2022/03/15 03:47:08;;;;;;;9.87;8.87;;;7.00;95.00;;;;;;5051956;28;20171;-55
2022/03/15 03:49:34;;;;;;;10.07;9.07;;;7.10;95.20;;;;;;5050907;28;20206;-54
2022/03/15 03:52:00;;;;;;;10.67;9.43;;;7.00;95.00;;;;;;5050505;28;20182;-53
2022/03/15 03:54:26;;;;;;;10.20;9.17;;;7.10;95.30;;;;;;5050298;28;20233;-51
2022/03/15 03:56:52;;;;;;;9.70;8.73;;;7.10;95.20;;;;;;5051258;28;20640;-51
2022/03/15 03:59:17;;;;;;;10.57;9.13;;;7.20;95.10;;;;;;5051255;28;20203;-50
2022/03/15 04:01:43;;;;;;;10.83;9.60;;;7.10;95.00;;;;;;5051277;28;20182;-50
2022/03/15 04:04:10;;;;;;;9.53;8.50;;;7.10;94.90;;;;;;5051323;28;20221;-54
2022/03/15 04:06:37;;;;;;;10.97;9.87;;;7.20;94.70;;;;;;5051113;28;20262;-49
2022/03/15 04:09:06;;;;;;;10.53;9.40;;;7.20;94.60;;;;;;5051267;28;20293;-54
2022/03/15 04:11:32;;;;;;;9.50;8.47;;;7.20;94.60;;;;;;5051592;28;20199;-56
2022/03/15 04:14:03;;;;;;;10.63;9.53;;;7.20;94.60;;;;;;5051031;28;20219;-53
2022/03/15 04:16:30;;;;;;;10.10;8.90;;;7.20;94.80;;;;;;5051453;28;20563;-55
2022/03/15 04:18:56;;;;;;;10.53;9.00;;;7.10;95.00;;;;;;5050950;28;20549;-49
2022/03/15 04:21:24;;;;;;;10.40;9.30;;;7.10;94.80;;;;;;5051808;28;20175;-53
2022/03/15 04:23:51;;;;;;;10.77;9.10;;;7.20;94.90;;;;;;5050871;28;20243;-49
2022/03/15 04:26:16;;;;;;;10.93;9.83;;;7.20;95.00;;;;;;5054555;28;20426;-56
2022/03/15 04:28:42;;;;;;;9.93;8.83;;;7.20;95.10;;;;;;5055064;28;20194;-54
2022/03/15 04:31:07;;;;;;;9.80;8.80;;;7.30;95.00;;;;;;5055191;28;20535;-49
2022/03/15 04:33:33;;;;;;;11.00;9.67;;;7.30;94.90;;;;;;5055426;28;20182;-54
2022/03/15 04:35:58;;;;;;;9.90;8.83;;;7.20;94.90;;;;;;5054787;28;20178;-50
2022/03/15 04:38:24;;;;;;;10.37;9.33;;;7.20;95.10;;;;;;5054967;28;20294;-56
2022/03/15 04:40:50;;;;;;;10.07;8.70;;;7.20;95.20;;;;;;5054700;28;20183;-52
2022/03/15 04:43:15;;;;;;;9.77;8.80;;;7.10;95.10;;;;;;5055422;28;20187;-52
2022/03/15 04:45:41;;;;;;;9.90;8.87;;;7.10;95.00;;;;;;5054671;28;20207;-53
2022/03/15 04:48:07;;;;;;;9.33;8.13;;;7.10;95.10;;;;;;5067824;22;20274;-53
2022/03/15 04:50:32;;;;;;;9.53;8.43;;;7.10;95.30;;;;;;5043858;28;20238;-54
2022/03/15 04:52:58;;;;;;;11.27;10.10;;;7.10;95.60;;;;;;5038079;28;20772;-56
2022/03/15 04:55:24;;;;;;;12.00;10.73;;;6.80;96.00;;;;;;5036736;28;20235;-54
2022/03/15 04:57:49;;;;;;;12.07;10.87;;;6.40;97.40;;;;;;5042024;28;20291;-53
2022/03/15 05:00:17;;;;;;;13.93;12.43;;;6.10;98.40;;;;;;5035704;28;20184;-53
2022/03/15 05:02:44;;;;;;;12.27;11.03;;;6.10;99.00;;;;;;5035876;28;20215;-56
2022/03/15 05:05:12;;;;;;;14.30;11.93;;;6.10;99.20;;;;;;5019885;28;20305;-54
2022/03/15 05:07:38;;;;;;;12.33;11.00;;;6.20;99.90;;;;;;5035297;28;20175;-53
2022/03/15 05:12:48;;;;;;;10.80;9.70;;;6.20;99.10;;;;;;5055866;28;20240;-53
2022/03/15 05:15:14;;;;;;;11.30;9.90;;;6.20;99.50;;;;;;5035856;28;20652;-52
2022/03/15 05:17:40;;;;;;;12.10;9.90;;;6.30;99.90;;;;;;5050021;28;20183;-55
2022/03/15 05:20:06;;;;;;;10.17;9.07;;;6.40;99.50;;;;;;5055126;28;20243;-52
2022/03/15 05:22:32;;;;;;;10.63;8.93;;;6.50;99.70;;;;;;5043021;28;20660;-53
2022/03/15 05:24:58;;;;;;;12.67;11.27;;;6.70;99.40;;;;;;5035086;28;20195;-53
2022/03/15 05:27:25;;;;;;;9.97;8.97;;;6.80;99.30;;;;;;5034334;28;20537;-53
2022/03/15 05:29:51;;;;;;;9.77;8.63;;;6.80;99.30;;;;;;5035138;28;20191;-55
2022/03/15 05:32:16;;;;;;;11.00;8.87;;;6.90;99.20;;;;;;5045168;28;20224;-56
2022/03/15 05:34:42;;;;;;;9.50;8.40;;;7.00;98.90;;;;;;5055108;28;20183;-54
2022/03/15 05:37:08;;;;;;;11.13;9.00;;;7.10;98.80;;;;;;5043505;28;20187;-53
2022/03/15 05:39:34;;;;;;;11.07;9.10;;;7.10;98.50;;;;;;5033406;28;20199;-56
2022/03/15 05:42:00;;;;;;;11.87;9.20;;;7.10;98.40;;;;;;5041409;28;20644;-56
2022/03/15 05:44:26;;;;;;;9.97;8.97;;;;;;;;;;5054619;28;20256;-53
2022/03/15 05:46:52;;;;;;;10.60;9.50;;;7.00;98.00;;;;;;5048632;28;20176;-53
2022/03/15 05:49:18;;;;;;;11.80;9.77;;;7.00;98.20;;;;;;5033983;28;20612;-53
2022/03/15 05:51:44;;;;;;;10.53;9.13;;;6.90;98.20;;;;;;5047252;28;20278;-52
2022/03/15 05:54:09;;;;;;;10.73;9.37;;;7.00;98.20;;;;;;5054889;28;20220;-57
2022/03/15 05:56:35;;;;;;;11.20;10.03;;;7.10;97.90;;;;;;5040943;28;20676;-54
2022/03/15 05:59:01;;;;;;;10.47;9.40;;;7.10;97.60;;;;;;5034491;28;20200;-54
2022/03/15 06:01:27;;;;;;;10.97;9.73;;;7.20;97.60;;;;;;5044485;28;20194;-54
2022/03/15 06:03:53;;;;;;;10.17;8.80;;;7.20;97.50;;;;;;5054821;28;20302;-53
2022/03/15 06:06:20;;;;;;;9.40;8.40;;;7.20;97.50;;;;;;5044420;28;20208;-55
2022/03/15 06:08:46;;;;;;;10.33;8.37;;;7.30;97.50;;;;;;5034385;28;20188;-53
2022/03/15 06:11:12;;;;;;;11.03;9.87;;;7.40;97.50;;;;;;5040704;28;20547;-55
2022/03/15 06:13:38;;;;;;;11.93;10.70;;;7.40;97.60;;;;;;5044273;28;20180;-55
2022/03/15 06:16:04;;;;;;;11.80;10.13;;;7.30;97.70;;;;;;5048805;28;20179;-55
2022/03/15 06:18:29;;;;;;;11.17;9.70;;;7.30;97.90;;;;;;5044903;28;20286;-52
2022/03/15 06:20:55;;;;;;;11.23;10.10;;;7.40;97.80;;;;;;5054127;28;20522;-54
2022/03/15 06:23:25;;;;;;;10.93;9.83;;;7.50;97.50;;;;;;5036853;28;20180;-53
2022/03/15 06:25:50;;;;;;;12.17;9.80;;;7.50;97.40;;;;;;5033465;28;20200;-55
2022/03/15 06:28:16;;;;;;;12.33;10.40;;;7.60;97.20;;;;;;5034417;28;20227;-52
2022/03/15 06:30:41;;;;;;;10.97;9.80;;;7.70;97.10;;;;;;5034114;28;20180;-52
2022/03/15 06:33:07;;;;;;;11.80;10.20;;;7.70;97.10;;;;;;5038711;28;20182;-57
2022/03/15 06:35:33;;;;;;;12.60;11.30;;;7.70;97.00;;;;;;5053752;28;20179;-54
2022/03/15 06:37:59;;;;;;;12.90;10.87;;;7.70;97.10;;;;;;5049903;28;20207;-55
2022/03/15 06:40:26;;;;;;;12.70;11.33;;;7.70;97.30;;;;;;5033512;28;20777;-56
2022/03/15 06:42:53;;;;;;;11.57;10.37;;;7.70;97.50;;;;;;5034570;28;20258;-56
2022/03/15 06:45:19;;;;;;;11.80;10.60;;;7.70;99.90;;;;;;5053763;28;20203;-54
2022/03/15 06:47:45;;;;;;;12.13;10.83;;;7.90;99.90;;;;;;5051864;28;20178;-55
2022/03/15 06:50:12;;;;;;;13.27;10.70;;;7.90;98.00;;;;;;5031922;28;20552;-53
2022/03/15 06:52:39;;;;;;;11.77;10.17;;;7.80;98.60;;;;;;5033903;28;20179;-54
2022/03/15 06:55:06;;;;;;;12.10;10.80;;;7.80;99.10;;;;;;5032297;28;20191;-54
2022/03/15 06:57:32;;;;;;;11.67;10.47;;;8.00;98.70;;;;;;5032925;28;20255;-52
2022/03/15 06:59:59;;;;;;;12.00;10.80;;;8.00;98.00;;;;;;5033687;28;20271;-56
2022/03/15 07:02:26;;;;;;;12.47;11.07;;;8.10;97.70;;;;;;5033180;28;20168;-55
2022/03/15 07:04:51;;;;;;;13.07;10.77;;;8.30;98.20;;;;;;5020834;28;20206;-52
2022/03/15 07:07:17;;;;;;;11.80;10.60;;;8.40;97.80;;;;;;5039596;28;20182;-56
2022/03/15 07:09:43;;;;;;;11.30;10.20;;;8.70;96.90;;;;;;5030558;28;20207;-54
2022/03/15 07:12:09;;;;;;;11.23;10.03;;;8.70;97.00;;;;;;5028890;28;20595;-52
2022/03/15 07:14:34;;;;;;;11.63;10.43;;;8.70;96.90;;;;;;5031615;28;20226;-55
2022/03/15 07:17:00;;;;;;;11.43;10.23;;;8.70;97.00;;;;;;5036269;28;20525;-54
2022/03/15 07:19:27;;;;;;;11.63;9.93;;;8.70;97.50;;;;;;5047634;28;20237;-57
2022/03/15 07:21:53;;;;;;;11.27;10.07;;;8.60;97.70;;;;;;5041240;28;20183;-56
2022/03/15 07:24:18;;;;;;;11.77;10.67;;;8.60;97.90;;;;;;5017360;28;20561;-52
2022/03/15 07:26:44;;;;;;;13.33;11.63;;;8.70;98.40;;;;;;5035746;28;20172;-52
2022/03/15 07:29:10;;;;;;;12.70;11.40;;;8.90;97.90;;;;;;5033229;28;20215;-53
2022/03/15 07:31:35;;;;;;;12.10;10.73;;;9.10;97.30;;;;;;5030999;28;20168;-54
2022/03/15 07:34:01;;;;;;;14.13;10.87;;;9.20;96.80;;;;;;5031876;28;20195;-54
2022/03/15 07:36:26;;;;;;;12.47;11.27;;;9.30;97.40;;;;;;5039554;28;20206;-55
2022/03/15 07:38:52;;;;;;;11.90;10.63;;;9.30;96.20;;;;;;5046376;28;20852;-53
2022/03/15 07:41:21;;;;;;;12.47;11.23;;;9.20;96.80;;;;;;5032026;28;20667;-53
2022/03/15 07:43:47;;;;;;;13.60;12.20;;;9.10;97.40;;;;;;5031989;28;20171;-52
2022/03/15 07:46:12;;;;;;;14.03;12.60;;;9.20;96.90;;;;;;5031215;28;20200;-52
2022/03/15 07:48:38;;;;;;;14.13;12.63;;;9.20;96.10;;;;;;5030984;28;20211;-52
2022/03/15 07:51:03;;;;;;;15.07;12.80;;;9.30;95.40;;;;;;5031789;28;20176;-52
2022/03/15 07:53:29;;;;;;;14.40;12.83;;;9.30;95.70;;;;;;5035884;28;20186;-52
2022/03/15 07:55:56;;;;;;;15.17;13.57;;;9.40;96.30;;;;;;5031703;28;20180;-52
2022/03/15 07:58:21;;;;;;;15.87;14.33;;;9.40;96.10;;;;;;5031616;28;20184;-52
2022/03/15 08:00:48;;;;;;;15.13;13.53;;;9.50;95.70;;;;;;5031370;28;20183;-54
2022/03/15 08:03:13;;;;;;;15.37;13.23;;;9.50;95.70;;;;;;5032170;28;20632;-53
2022/03/15 08:05:39;;;;;;;15.03;13.47;;;9.60;95.50;;;;;;5038615;28;20202;-53
2022/03/15 08:08:06;;;;;;;15.80;14.10;;;9.50;95.30;;;;;;5051729;28;20615;-54
2022/03/15 08:10:32;;;;;;;14.63;13.20;;;9.50;95.10;;;;;;5049522;28;20808;-52
2022/03/15 08:12:57;;;;;;;14.67;13.17;;;9.70;95.60;;;;;;5046057;28;20178;-53
2022/03/15 08:15:23;;;;;;;16.27;13.97;;;9.70;95.40;;;;;;5038479;28;20184;-56
2022/03/15 08:17:49;;;;;;;15.43;13.07;;;9.70;95.00;;;;;;5030759;28;20183;-52
2022/03/15 08:20:20;;;;;;;15.50;14.00;;;9.80;95.90;;;;;;5031160;28;20175;-55
2022/03/15 08:22:47;;;;;;;15.33;13.73;;;9.90;95.70;;;;;;5030025;28;20209;-51
2022/03/15 08:25:13;;;;;;;15.23;13.67;;;10.00;94.60;;;;;;5030737;28;20199;-53
2022/03/15 08:27:38;;;;;;;15.20;13.57;;;10.00;94.40;;;;;;5031839;28;20650;-52
2022/03/15 08:30:05;;;;;;;14.93;13.33;;;10.10;93.10;;;;;;5039080;28;20171;-55
2022/03/15 08:32:30;;;;;;;15.20;12.70;;;10.10;93.20;;;;;;5051429;28;20576;-54
2022/03/15 08:34:56;;;;;;;14.90;13.40;;;10.20;92.90;;;;;;5051270;28;20178;-52
2022/03/15 08:37:21;;;;;;;14.20;12.80;;;10.50;93.30;;;;;;5051222;28;20661;-55
2022/03/15 08:39:47;;;;;;;14.27;12.87;;;10.70;92.00;;;;;;5050894;28;20195;-54
2022/03/15 08:42:14;;;;;;;14.60;13.10;;;10.90;91.40;;;;;;5051550;28;20202;-57
2022/03/15 08:44:39;;;;;;;15.03;13.47;;;10.90;90.50;;;;;;5051118;28;20202;-54
2022/03/15 08:47:05;;;;;;;13.87;12.40;;;10.90;90.60;;;;;;5051029;28;20213;-55
2022/03/15 08:49:30;;;;;;;16.30;14.00;;;10.70;90.00;;;;;;5051071;28;20246;-53
2022/03/15 08:51:56;;;;;;;15.30;13.70;;;10.40;91.40;;;;;;5050932;28;20177;-54
2022/03/15 08:54:22;;;;;;;15.80;14.20;;;10.10;92.70;;;;;;5050105;28;20179;-56
2022/03/15 08:56:48;;;;;;;18.23;14.40;;;10.10;93.10;;;;;;5050491;28;20159;-54
2022/03/15 08:59:15;;;;;;;15.70;13.40;;;10.10;94.10;;;;;;5051288;28;20561;-55
2022/03/15 09:01:42;;;;;;;16.47;14.67;;;10.10;92.60;;;;;;5051099;28;20202;-54
2022/03/15 09:04:08;;;;;;;15.87;14.27;;;10.20;94.00;;;;;;5050858;28;20643;-53
2022/03/15 09:06:34;;;;;;;15.20;13.60;;;10.00;94.10;;;;;;5050878;28;20171;-52
2022/03/15 09:09:02;;;;;;;16.00;13.57;;;9.90;94.70;;;;;;5050639;28;20199;-51
2022/03/15 09:11:29;;;;;;;14.43;12.93;;;9.60;94.50;;;;;;5052988;28;20171;-54
2022/03/15 09:13:55;;;;;;;15.63;14.03;;;9.70;94.60;;;;;;5036919;28;20224;-54
2022/03/15 09:16:21;;;;;;;15.90;14.27;;;9.80;95.10;;;;;;5054436;28;20167;-54
2022/03/15 09:18:47;;;;;;;15.70;13.90;;;9.90;95.10;;;;;;5036987;28;20191;-55
2022/03/15 09:21:13;;;;;;;16.63;12.77;;;10.00;93.80;;;;;;5033421;28;20266;-53
2022/03/15 09:23:39;;;;;;;14.67;12.70;;;10.40;93.70;;;;;;5034480;28;20186;-55
2022/03/15 09:26:05;;;;;;;14.90;13.37;;;10.50;94.00;;;;;;5033898;28;20204;-55
2022/03/15 09:28:31;;;;;;;16.30;14.43;;;10.50;93.70;;;;;;5034671;28;20207;-57
2022/03/15 09:30:58;;;;;;;15.27;13.77;;;10.40;94.00;;;;;;5033200;28;20541;-52
2022/03/15 09:33:23;;;;;;;15.63;13.83;;;10.30;94.30;;;;;;5033412;28;20599;-56
2022/03/15 09:35:49;;;;;;;14.60;13.10;;;10.20;94.30;;;;;;5035079;28;20171;-56
2022/03/15 09:38:15;;;;;;;14.70;12.73;;;10.30;94.60;;;;;;5033723;28;20199;-53
2022/03/15 09:40:43;;;;;;;16.50;13.37;;;10.30;93.40;;;;;;5016765;28;20241;-56
2022/03/15 09:43:12;;;;;;;15.87;13.33;;;10.60;93.90;;;;;;5034009;28;20218;-56
2022/03/15 09:45:38;;;;;;;14.37;12.47;;;11.20;93.30;;;;;;5033911;28;20275;-54
2022/03/15 09:48:15;;;;;;;13.37;11.77;;;11.80;91.40;;;;;;5033966;28;20195;-55
2022/03/15 09:50:45;;;;;;;13.57;11.40;;;12.40;89.20;;;;;;5034107;28;20164;-56
2022/03/15 09:53:10;;;;;;;13.03;11.73;;;12.80;87.40;;;;;;5034294;28;20632;-53
2022/03/15 09:55:37;;;;;;;12.97;11.30;;;13.30;84.00;;;;;;5033340;28;20187;-52
2022/03/15 09:58:03;;;;;;;12.03;10.50;;;13.70;82.20;;;;;;5033749;28;20213;-54
2022/03/15 10:00:29;;;;;;;12.03;10.83;;;14.50;79.30;;;;;;5033617;28;20261;-57
2022/03/15 10:02:55;;;;;;;12.00;10.70;;;15.80;75.50;;;;;;5034173;28;20176;-53
2022/03/15 10:05:21;;;;;;;10.40;9.33;;;16.80;69.70;;;;;;5033872;28;20204;-56
2022/03/15 10:07:47;;;;;;;10.47;9.43;;;17.90;64.10;;;;;;5033148;28;20190;-55
2022/03/15 10:10:15;;;;;;;11.73;10.53;;;18.30;61.20;;;;;;5033688;28;20194;-54
2022/03/15 10:12:40;;;;;;;12.10;10.73;;;18.70;61.40;;;;;;5052632;28;20262;-57
2022/03/15 10:15:14;;;;;;;11.60;10.37;;;18.80;61.50;;;;;;5053506;28;20273;-54
2022/03/15 10:17:44;;;;;;;12.50;11.20;;;19.20;58.90;;;;;;5052146;28;20185;-50
2022/03/15 10:20:13;;;;;;;12.30;10.55;;;20.10;57.60;;;;;;5053782;28;20179;-55
2022/03/15 10:22:50;;;;;;;11.75;10.18;;;21.10;56.80;;;;;;5053206;28;20178;-54
2022/03/15 10:25:16;;;;;;;10.02;9.13;;;21.70;54.30;;;;;;5052171;28;20202;-54
2022/03/15 10:27:41;;;;;;;12.13;9.23;;;22.70;51.60;;;;;;5033166;28;20168;-55
2022/03/15 10:30:08;;;;;;;11.65;8.80;;;24.20;48.40;;;;;;5033126;28;20164;-57
2022/03/15 10:32:34;;;;;;;10.20;9.30;;;25.00;47.50;;;;;;5033545;28;20263;-55
2022/03/15 10:35:09;;;;;;;11.93;8.90;;;25.90;44.40;;;;;;5033329;28;20208;-53
2022/03/15 10:37:37;;;;;;;9.40;8.60;;;26.50;42.40;;;;;;5032798;28;20172;-55
2022/03/15 10:40:03;;;;;;;9.40;8.60;;;26.30;41.80;;;;;;5030110;28;20596;-52
2022/03/15 10:42:29;;;;;;;9.35;8.52;;;25.90;42.40;;;;;;5030817;28;20592;-54
2022/03/15 10:44:56;;;;;;;9.70;8.63;;;24.80;42.80;;;;;;5030259;28;20198;-56
2022/03/15 10:47:22;;;;;;;9.57;8.55;;;23.60;44.20;;;;;;5032135;28;20168;-56
2022/03/15 10:49:56;;;;;;;9.45;8.52;;;22.20;45.20;;;;;;5034491;28;20230;-54
2022/03/15 10:52:32;;;;;;;9.98;8.85;;;21.60;45.80;;;;;;5032788;28;20512;-55
2022/03/15 10:55:29;;;;;;;10.75;9.23;;;21.00;47.20;;;;;;5041802;28;20265;-55
2022/03/15 10:58:01;;;;;;;10.40;9.40;;;20.00;48.60;;;;;;5038747;28;20246;-53
2022/03/15 11:00:29;;;;;;;10.17;9.20;;;18.60;50.30;;;;;;5040455;28;20653;-55
2022/03/15 11:02:56;;;;;;;11.33;9.13;;;17.60;52.50;;;;;;5042950;28;20178;-51
2022/03/15 11:05:36;;;;;;;10.83;8.57;;;17.50;53.60;;;;;;5042080;28;20196;-52
2022/03/15 11:08:13;;;;;;;10.50;9.00;;;16.90;52.90;;;;;;5040821;28;20213;-53
2022/03/15 11:10:41;;;;;;;9.80;8.87;;;16.60;53.80;;;;;;5040002;28;20182;-52
2022/03/15 11:13:11;;;;;;;10.00;9.00;;;16.40;55.00;;;;;;5039809;28;20203;-54
2022/03/15 11:15:42;;;;;;;10.40;9.40;;;16.30;55.70;;;;;;5041368;28;20172;-54
2022/03/15 11:18:10;;;;;;;8.97;8.07;;;16.50;54.00;;;;;;5041479;28;20681;-55
2022/03/15 11:20:37;;;;;;;9.40;8.50;;;16.90;53.20;;;;;;5040454;28;20233;-56
2022/03/15 11:23:05;;;;;;;10.77;8.80;;;17.20;53.50;;;;;;5040084;28;20207;-55
2022/03/15 11:25:42;;;;;;;9.83;8.40;;;17.00;54.40;;;;;;5041607;28;20210;-58
2022/03/15 11:28:14;;;;;;;9.13;8.23;;;16.80;53.50;;;;;;5044639;28;20745;-54
2022/03/15 11:30:41;;;;;;;13.27;9.10;;;16.40;54.60;;;;;;5051708;28;20643;-57
2022/03/15 11:33:07;;;;;;;9.97;8.93;;;15.90;54.60;;;;;;5052185;28;20190;-54
2022/03/15 11:35:34;;;;;;;9.73;8.73;;;15.50;56.00;;;;;;5050816;28;20597;-55
2022/03/15 11:38:03;;;;;;;9.73;8.73;;;15.20;56.50;;;;;;5045754;28;20202;-51
2022/03/15 11:40:29;;;;;;;10.00;9.00;;;15.30;57.20;;;;;;5041602;28;20551;-51
2022/03/15 11:43:33;;;;;;;9.63;8.63;;;15.40;55.30;;;;;;5041954;28;20179;-55
2022/03/15 11:46:03;;;;;;;10.17;9.10;;;15.50;56.10;;;;;;5041865;28;20286;-52
2022/03/15 11:49:03;;;;;;;10.50;9.37;;;15.70;56.10;;;;;;5039545;28;20214;-51
2022/03/15 11:52:05;;;;;;;9.93;8.50;;;15.80;55.10;;;;;;5036283;28;20584;-53
2022/03/15 11:54:41;;;;;;;10.17;9.17;;;16.00;56.00;;;;;;5035132;28;20528;-53
2022/03/15 11:57:27;;;;;;;10.00;9.00;;;16.30;54.30;;;;;;5038449;28;20584;-55
2022/03/15 11:59:55;;;;;;;10.73;9.63;;;16.60;54.00;;;;;;5031355;28;20187;-56
2022/03/15 12:02:29;;;;;;;10.77;9.03;;;16.50;55.80;;;;;;5031643;28;20199;-52
2022/03/15 12:04:57;;;;;;;10.77;8.30;;;16.50;56.40;;;;;;5031213;28;20220;-53
2022/03/15 12:07:45;;;;;;;10.33;9.33;;;16.60;56.30;;;;;;5031364;28;20164;-54
2022/03/15 12:10:32;;;;;;;10.17;9.17;;;16.80;56.30;;;;;;5031346;28;20195;-51
2022/03/15 12:13:03;;;;;;;11.63;8.90;;;16.80;55.00;;;;;;5040150;28;20179;-56
2022/03/15 12:15:38;;;;;;;10.27;9.13;;;16.80;55.60;;;;;;5040650;28;20179;-55
2022/03/15 12:21:07;;;;;;;9.87;8.63;;;16.10;55.20;;;;;;5037974;28;20183;-52
2022/03/15 12:23:39;;;;;;;10.00;9.00;;;16.20;55.30;;;;;;5031214;28;20630;-55
2022/03/15 12:26:04;;;;;;;10.13;8.93;;;16.30;54.60;;;;;;5031170;28;20264;-52
2022/03/15 12:28:32;;;;;;;11.20;9.00;;;16.30;55.70;;;;;;5030888;28;20195;-55
2022/03/15 12:31:06;;;;;;;10.67;9.57;;;15.90;55.90;;;;;;5033821;28;20175;-56
2022/03/15 12:33:32;;;;;;;10.43;9.33;;;15.60;57.30;;;;;;5039372;28;20179;-55
2022/03/15 12:36:04;;;;;;;10.13;9.13;;;15.30;57.30;;;;;;5040884;28;20728;-54
2022/03/15 12:38:40;;;;;;;10.53;9.40;;;15.20;57.70;;;;;;5040120;28;20218;-55
2022/03/15 12:41:07;;;;;;;11.97;9.70;;;15.10;57.60;;;;;;5037994;28;20671;-56
2022/03/15 12:43:33;;;;;;;10.83;8.90;;;15.10;57.10;;;;;;5042184;28;20176;-55
2022/03/15 12:46:02;;;;;;;11.00;9.17;;;15.20;57.40;;;;;;5051491;28;20205;-54
2022/03/15 12:48:30;;;;;;;10.03;8.93;;;15.20;56.50;;;;;;5045357;28;20211;-54